Time;durP1;ratioP1;P1;durP2;ratioP2;P2;SDS_P1;SDS_P2;PMS_P1;PMS_P2;Temp;Humidity;BMP_temperature;BMP_pressure;BME280_temperature;BME280_humidity;BME280_pressure;Samples;Min_cycle;Max_cycle;Signal;HPM_P1;HPM_P2
2023/04/01 00:02:07;;;;;;;3.28;0.75;;;9.70;99.90;;;;;;5028633;28;20022;-65
2023/04/01 00:04:32;;;;;;;1.20;0.43;;;9.60;99.90;;;;;;5026483;28;20025;-65
2023/04/01 00:07:00;;;;;;;2.25;0.80;;;9.60;99.90;;;;;;5026287;28;20029;-66
2023/04/01 00:09:25;;;;;;;0.40;0.20;;;9.70;99.90;;;;;;5021991;28;20033;-66
2023/04/01 00:11:51;;;;;;;1.08;0.57;;;9.70;99.90;;;;;;5027378;28;20028;-65
2023/04/01 00:14:16;;;;;;;2.15;0.63;;;9.70;99.90;;;;;;5018950;28;20056;-65
2023/04/01 00:16:42;;;;;;;0.63;0.52;;;9.70;99.90;;;;;;5019880;28;20041;-66
2023/04/01 00:19:07;;;;;;;2.35;0.35;;;9.70;99.90;;;;;;5027737;28;20394;-65
2023/04/01 00:21:33;;;;;;;1.35;0.40;;;9.70;99.90;;;;;;5030477;28;20543;-65
2023/04/01 00:23:59;;;;;;;1.75;0.47;;;9.70;99.90;;;;;;5022147;28;20068;-66
2023/04/01 00:26:25;;;;;;;1.65;0.30;;;9.80;99.90;;;;;;5026632;28;20033;-65
2023/04/01 00:28:51;;;;;;;0.77;0.30;;;9.70;99.90;;;;;;5026055;28;20036;-65
2023/04/01 00:31:16;;;;;;;1.85;0.50;;;9.70;99.90;;;;;;5030228;28;20545;-65
2023/04/01 00:33:42;;;;;;;1.42;0.70;;;9.80;99.90;;;;;;5029612;28;20033;-65
2023/04/01 00:36:13;;;;;;;2.92;0.55;;;9.80;99.90;;;;;;5014211;28;20491;-66
2023/04/01 00:38:39;;;;;;;0.32;0.30;;;9.70;99.90;;;;;;5012434;28;20155;-65
2023/04/01 00:41:05;;;;;;;2.47;0.43;;;9.70;99.90;;;;;;5023180;28;20142;-65
2023/04/01 00:43:31;;;;;;;1.80;0.30;;;9.80;99.90;;;;;;5003290;28;20050;-66
2023/04/01 00:45:57;;;;;;;1.35;0.40;;;9.70;99.90;;;;;;5020988;28;20025;-65
2023/04/01 00:48:33;;;;;;;1.88;0.30;;;9.70;99.90;;;;;;5024342;28;20120;-65
2023/04/01 00:51:08;;;;;;;2.10;0.38;;;9.70;99.90;;;;;;5015559;28;20025;-66
2023/04/01 00:53:39;;;;;;;1.92;1.00;;;9.70;99.90;;;;;;5013393;28;20109;-65
2023/04/01 00:56:14;;;;;;;2.33;0.55;;;9.80;99.90;;;;;;5015588;28;20029;-66
2023/04/01 00:58:54;;;;;;;2.13;0.40;;;9.70;99.90;;;;;;5022041;28;21226;-65
2023/04/01 01:01:23;;;;;;;1.38;0.30;;;9.80;99.90;;;;;;5019801;28;20434;-65
2023/04/01 01:03:49;;;;;;;1.38;0.10;;;9.80;99.90;;;;;;5019746;28;20406;-64
2023/04/01 01:06:59;;;;;;;1.52;0.50;;;9.80;99.90;;;;;;5025428;28;20037;-66
2023/04/01 01:10:07;;;;;;;1.98;0.38;;;9.80;99.90;;;;;;5020858;28;20033;-65
2023/04/01 01:13:07;;;;;;;0.38;0.38;;;9.80;99.90;;;;;;5018848;28;20079;-65
2023/04/01 01:15:41;;;;;;;0.28;0.28;;;9.70;99.90;;;;;;5017865;28;20021;-65
2023/04/01 01:18:06;;;;;;;;;;;9.70;99.90;;;;;;5025755;28;20030;-65
2023/04/01 01:21:19;;;;;;;1.15;0.40;;;9.60;99.90;;;;;;5019636;28;20357;-65
2023/04/01 01:24:25;;;;;;;2.83;0.52;;;9.60;99.90;;;;;;5021805;28;20313;-65
2023/04/01 01:27:10;;;;;;;1.02;0.30;;;9.50;99.90;;;;;;5022882;28;20025;-65
2023/04/01 01:30:00;;;;;;;2.10;0.82;;;9.60;99.90;;;;;;5013398;28;20131;-65
2023/04/01 01:32:41;;;;;;;1.50;0.68;;;9.50;99.90;;;;;;5021477;28;20055;-65
2023/04/01 01:35:32;;;;;;;0.60;0.30;;;9.60;99.90;;;;;;5018322;28;20030;-65
2023/04/01 01:38:02;;;;;;;2.22;0.43;;;9.60;99.90;;;;;;5016995;28;20044;-65
2023/04/01 01:40:30;;;;;;;2.25;0.30;;;9.60;99.90;;;;;;5014534;28;20038;-64
2023/04/01 01:43:02;;;;;;;2.90;0.43;;;9.60;99.90;;;;;;5009006;28;20141;-66
2023/04/01 01:45:30;;;;;;;0.90;0.22;;;9.60;99.90;;;;;;5021176;28;20044;-64
2023/04/01 01:47:57;;;;;;;0.63;0.30;;;9.60;99.90;;;;;;5026123;28;21867;-66
2023/04/01 01:50:26;;;;;;;0.85;0.30;;;9.60;99.90;;;;;;5019005;28;20033;-65
2023/04/01 01:52:59;;;;;;;0.22;0.22;;;9.70;99.90;;;;;;5025147;28;20479;-66
2023/04/01 01:55:28;;;;;;;1.05;0.60;;;9.70;99.90;;;;;;5021039;28;20490;-66
2023/04/01 01:57:57;;;;;;;4.63;0.32;;;9.70;99.90;;;;;;5014211;28;20029;-66
2023/04/01 02:00:23;;;;;;;3.30;0.40;;;9.70;99.90;;;;;;5013971;28;20112;-66
2023/04/01 02:02:50;;;;;;;0.65;0.20;;;9.70;99.90;;;;;;5031064;28;20033;-65
2023/04/01 02:05:19;;;;;;;1.63;0.40;;;9.70;99.90;;;;;;5016211;28;20055;-65
2023/04/01 02:07:53;;;;;;;2.30;0.57;;;9.70;99.90;;;;;;5028632;28;20033;-65
2023/04/01 02:10:22;;;;;;;2.20;0.30;;;9.70;99.90;;;;;;5022534;28;20040;-66
2023/04/01 02:12:50;;;;;;;0.80;0.30;;;9.70;99.90;;;;;;5014980;28;20022;-66
2023/04/01 02:15:17;;;;;;;0.50;0.40;;;9.70;99.90;;;;;;5018774;28;20056;-65
2023/04/01 02:17:45;;;;;;;1.05;0.40;;;9.70;99.90;;;;;;5021075;28;20055;-65
2023/04/01 02:20:22;;;;;;;0.80;0.40;;;9.60;99.90;;;;;;5020393;28;20103;-65
2023/04/01 02:22:56;;;;;;;2.03;0.30;;;9.60;99.90;;;;;;5021750;28;20030;-65
2023/04/01 02:25:30;;;;;;;0.88;0.28;;;9.50;99.90;;;;;;5017450;28;20045;-65
2023/04/01 02:27:58;;;;;;;1.80;0.68;;;9.50;99.90;;;;;;5022272;28;20034;-64
2023/04/01 02:30:25;;;;;;;3.88;0.47;;;9.50;99.90;;;;;;5019706;28;20025;-66
2023/04/01 02:32:52;;;;;;;2.63;0.40;;;9.50;99.90;;;;;;5019592;28;20029;-65
2023/04/01 02:35:18;;;;;;;2.08;0.22;;;9.40;99.90;;;;;;5018928;28;20056;-65
2023/04/01 02:37:48;;;;;;;1.85;0.60;;;9.40;99.90;;;;;;5009765;28;20100;-65
2023/04/01 02:40:16;;;;;;;0.45;0.20;;;9.40;99.90;;;;;;5014348;28;20030;-65
2023/04/01 02:42:41;;;;;;;1.75;0.20;;;9.30;99.90;;;;;;5004114;28;20558;-65
2023/04/01 02:45:08;;;;;;;2.70;0.45;;;9.30;99.90;;;;;;5020312;28;20112;-64
2023/04/01 02:47:34;;;;;;;0.68;0.10;;;9.30;99.90;;;;;;5012747;28;20025;-66
2023/04/01 02:49:59;;;;;;;0.32;0.30;;;9.20;99.90;;;;;;5020336;28;20025;-65
2023/04/01 02:52:26;;;;;;;2.10;0.20;;;9.20;99.90;;;;;;5011608;28;20457;-64
2023/04/01 02:54:52;;;;;;;2.80;0.40;;;9.10;99.90;;;;;;5015975;28;20093;-65
2023/04/01 02:57:17;;;;;;;0.98;0.25;;;9.10;99.90;;;;;;5020598;28;20101;-65
2023/04/01 02:59:43;;;;;;;0.85;0.28;;;9.10;99.90;;;;;;5021374;28;20038;-65
2023/04/01 03:02:08;;;;;;;1.55;0.80;;;9.00;99.90;;;;;;5032009;28;20399;-65
2023/04/01 03:04:34;;;;;;;0.70;0.32;;;9.00;99.90;;;;;;5023866;28;20033;-65
2023/04/01 03:07:00;;;;;;;0.60;0.20;;;9.00;99.90;;;;;;5019706;28;20503;-66
2023/04/01 03:09:25;;;;;;;1.27;0.30;;;9.00;99.90;;;;;;5014667;28;20139;-65
2023/04/01 03:11:51;;;;;;;0.20;0.20;;;8.90;99.90;;;;;;5021594;28;20080;-66
2023/04/01 03:14:17;;;;;;;0.30;0.20;;;8.90;99.90;;;;;;5012535;28;20026;-65
2023/04/01 03:16:42;;;;;;;0.68;0.28;;;8.90;99.90;;;;;;5009878;28;20018;-64
2023/04/01 03:19:08;;;;;;;0.40;0.30;;;8.80;99.90;;;;;;5014661;28;20479;-66
2023/04/01 03:21:33;;;;;;;0.63;0.17;;;8.80;99.90;;;;;;5017979;28;20025;-65
2023/04/01 03:23:59;;;;;;;1.60;0.70;;;8.80;99.90;;;;;;5023183;28;20029;-65
2023/04/01 03:26:26;;;;;;;1.25;0.47;;;8.80;99.90;;;;;;5018472;28;20034;-64
2023/04/01 03:28:52;;;;;;;0.63;0.28;;;8.70;99.90;;;;;;5019159;28;20033;-65
2023/04/01 03:31:18;;;;;;;1.27;0.32;;;8.70;99.90;;;;;;5020226;28;20028;-65
2023/04/01 03:33:44;;;;;;;0.60;0.38;;;8.80;99.90;;;;;;5028730;28;20064;-65
2023/04/01 03:36:12;;;;;;;0.20;0.20;;;8.80;99.90;;;;;;5030655;28;20482;-65
2023/04/01 03:38:38;;;;;;;2.63;0.25;;;8.80;99.90;;;;;;5018774;28;20018;-65
2023/04/01 03:41:04;;;;;;;0.13;0.13;;;8.80;99.90;;;;;;5023422;28;20407;-66
2023/04/01 03:43:29;;;;;;;1.20;0.30;;;8.70;99.90;;;;;;4998614;28;20038;-65
2023/04/01 03:45:57;;;;;;;0.10;0.10;;;8.80;99.90;;;;;;5023648;28;20048;-65
2023/04/01 03:48:23;;;;;;;0.75;0.32;;;8.70;99.90;;;;;;5027989;28;20060;-66
2023/04/01 03:50:48;;;;;;;1.75;0.40;;;8.70;99.90;;;;;;5021694;28;20103;-65
2023/04/01 03:53:15;;;;;;;0.30;0.28;;;8.70;99.90;;;;;;5016311;28;20053;-65
2023/04/01 03:55:40;;;;;;;1.95;0.40;;;8.70;99.90;;;;;;5022940;28;20528;-65
2023/04/01 03:58:07;;;;;;;1.65;0.40;;;8.70;99.90;;;;;;5018879;28;20120;-65
2023/04/01 04:00:33;;;;;;;5.22;0.38;;;8.70;99.90;;;;;;5022226;28;20025;-65
2023/04/01 04:02:59;;;;;;;1.40;0.30;;;8.70;99.90;;;;;;5029153;28;20083;-64
2023/04/01 04:05:25;;;;;;;2.25;0.30;;;8.60;99.90;;;;;;5019046;28;20037;-66
2023/04/01 04:07:52;;;;;;;1.60;0.30;;;8.60;99.90;;;;;;5017885;28;20026;-65
2023/04/01 04:10:18;;;;;;;0.52;0.25;;;8.60;99.90;;;;;;5025970;28;20091;-65
2023/04/01 04:12:44;;;;;;;0.68;0.57;;;8.60;99.90;;;;;;5029240;28;20048;-66
2023/04/01 04:15:10;;;;;;;0.10;0.10;;;8.60;99.90;;;;;;5022774;28;20033;-65
2023/04/01 04:17:36;;;;;;;2.53;0.25;;;8.60;99.90;;;;;;5021723;28;20061;-65
2023/04/01 04:20:02;;;;;;;0.88;0.20;;;8.70;99.90;;;;;;5020702;28;20056;-65
2023/04/01 04:22:28;;;;;;;4.20;0.20;;;8.60;99.90;;;;;;5022458;28;20029;-65
2023/04/01 04:24:53;;;;;;;0.50;0.40;;;8.70;99.90;;;;;;5022912;28;20458;-66
2023/04/01 04:27:19;;;;;;;1.20;1.10;;;8.70;99.90;;;;;;5022572;28;20029;-64
2023/04/01 04:29:45;;;;;;;0.40;0.20;;;8.70;99.90;;;;;;5021661;28;20487;-65
2023/04/01 04:32:11;;;;;;;0.30;0.20;;;8.70;99.90;;;;;;5024017;28;20030;-66
2023/04/01 04:34:37;;;;;;;0.10;0.10;;;8.70;99.90;;;;;;5022074;28;20025;-65
2023/04/01 04:37:02;;;;;;;0.63;0.30;;;8.70;99.90;;;;;;5020095;28;20076;-66
2023/04/01 04:39:29;;;;;;;0.20;0.15;;;8.70;99.90;;;;;;5021727;28;20025;-65
2023/04/01 04:41:54;;;;;;;0.30;0.30;;;8.70;99.90;;;;;;5022238;28;20029;-66
2023/04/01 04:44:20;;;;;;;1.02;0.20;;;8.70;99.90;;;;;;4992829;28;20560;-65
2023/04/01 04:46:46;;;;;;;0.10;0.10;;;8.70;99.90;;;;;;5017704;28;20041;-66
2023/04/01 04:49:11;;;;;;;0.17;0.17;;;8.80;99.90;;;;;;5021383;28;20501;-65
2023/04/01 04:51:37;;;;;;;0.13;0.13;;;8.80;99.90;;;;;;5026404;28;20021;-65
2023/04/01 04:54:04;;;;;;;0.20;0.20;;;8.80;99.90;;;;;;5025991;28;20469;-66
2023/04/01 04:56:30;;;;;;;0.10;0.10;;;8.80;99.90;;;;;;5016153;28;20046;-65
2023/04/01 04:58:56;;;;;;;0.47;0.20;;;8.80;99.90;;;;;;5025966;28;20068;-66
2023/04/01 05:01:21;;;;;;;0.22;0.22;;;8.80;99.90;;;;;;5023402;28;20030;-65
2023/04/01 05:03:47;;;;;;;0.90;0.25;;;8.80;99.90;;;;;;5026952;28;20458;-65
2023/04/01 05:06:17;;;;;;;0.43;0.35;;;8.80;99.90;;;;;;5018412;28;20041;-65
2023/04/01 05:08:44;;;;;;;1.65;0.73;;;8.80;99.90;;;;;;5023743;28;20384;-65
2023/04/01 05:11:13;;;;;;;0.47;0.10;;;8.80;99.90;;;;;;5022079;28;20076;-65
2023/04/01 05:13:38;;;;;;;0.75;0.20;;;8.80;99.90;;;;;;5022331;28;20099;-66
2023/04/01 05:16:12;;;;;;;0.30;0.17;;;8.80;99.90;;;;;;5012774;28;20486;-65
2023/04/01 05:18:37;;;;;;;0.28;0.20;;;8.80;99.90;;;;;;5020536;28;20025;-66
2023/04/01 05:21:04;;;;;;;0.10;0.10;;;8.80;99.90;;;;;;5023265;28;20030;-65
2023/04/01 05:23:31;;;;;;;0.17;0.10;;;8.80;99.90;;;;;;5031214;28;20585;-67
2023/04/01 05:25:57;;;;;;;0.10;0.10;;;8.70;99.90;;;;;;5016909;28;20026;-65
2023/04/01 05:28:22;;;;;;;0.10;0.10;;;8.70;99.90;;;;;;5020898;28;20438;-65
2023/04/01 05:30:48;;;;;;;0.20;0.20;;;8.70;99.90;;;;;;5022702;28;20030;-65
2023/04/01 05:33:14;;;;;;;0.98;0.20;;;8.70;99.90;;;;;;5027252;28;20026;-65
2023/04/01 05:35:40;;;;;;;0.20;0.13;;;8.70;99.90;;;;;;5016421;28;22617;-65
2023/04/01 05:38:06;;;;;;;0.03;0.03;;;8.70;99.90;;;;;;5014296;28;20420;-65
2023/04/01 05:40:32;;;;;;;0.10;0.10;;;8.70;99.90;;;;;;5029018;28;20029;-66
2023/04/01 05:42:59;;;;;;;1.90;0.15;;;8.70;99.90;;;;;;5005972;28;20192;-65
2023/04/01 05:45:25;;;;;;;0.10;0.10;;;8.70;99.90;;;;;;5017431;28;20030;-66
2023/04/01 05:47:51;;;;;;;0.32;0.30;;;8.70;99.90;;;;;;5017531;28;20507;-66
2023/04/01 05:50:17;;;;;;;1.15;0.20;;;8.70;99.90;;;;;;5014357;28;20626;-65
2023/04/01 05:52:42;;;;;;;0.45;0.30;;;8.70;99.90;;;;;;5020692;28;20033;-65
2023/04/01 05:55:08;;;;;;;0.85;0.40;;;8.70;99.90;;;;;;5022600;28;20018;-65
2023/04/01 05:57:34;;;;;;;0.60;0.30;;;8.80;99.90;;;;;;5024931;28;20550;-65
2023/04/01 06:00:00;;;;;;;0.98;0.35;;;8.80;99.90;;;;;;5016085;28;20046;-66
2023/04/01 06:02:25;;;;;;;0.28;0.20;;;8.80;99.90;;;;;;5020059;28;21023;-66
2023/04/01 06:05:01;;;;;;;0.52;0.30;;;8.80;99.90;;;;;;5020300;28;20049;-65
2023/04/01 06:07:28;;;;;;;0.65;0.30;;;8.80;99.90;;;;;;5018746;28;20255;-64
2023/04/01 06:09:55;;;;;;;0.68;0.40;;;8.80;99.90;;;;;;5022839;28;20067;-65
2023/04/01 06:12:29;;;;;;;1.75;0.50;;;8.80;99.90;;;;;;5019171;28;20022;-65
2023/04/01 06:15:22;;;;;;;1.60;0.20;;;8.80;99.90;;;;;;5023448;28;20036;-66
2023/04/01 06:18:03;;;;;;;1.45;0.45;;;8.80;99.90;;;;;;5019530;28;20097;-66
2023/04/01 06:20:29;;;;;;;0.10;0.10;;;8.70;99.90;;;;;;5016645;28;20092;-65
2023/04/01 06:23:21;;;;;;;0.45;0.17;;;8.80;99.90;;;;;;5020533;28;20033;-66
2023/04/01 06:25:53;;;;;;;0.30;0.25;;;8.80;99.90;;;;;;5020529;28;20108;-65
2023/04/01 06:29:03;;;;;;;0.30;0.30;;;8.80;99.90;;;;;;5019546;28;20087;-65
2023/04/01 06:32:13;;;;;;;1.23;0.32;;;8.70;99.90;;;;;;5021904;28;20061;-65
2023/04/01 06:34:47;;;;;;;0.38;0.32;;;8.80;99.90;;;;;;5018997;28;20025;-65
2023/04/01 06:37:57;;;;;;;1.40;0.40;;;8.80;99.90;;;;;;5019440;28;20095;-65
2023/04/01 06:41:06;;;;;;;0.57;0.17;;;8.80;99.90;;;;;;5004519;28;20041;-67
2023/04/01 06:43:50;;;;;;;0.52;0.30;;;8.80;99.90;;;;;;4996174;28;20097;-67
2023/04/01 06:46:46;;;;;;;0.35;0.30;;;8.80;99.90;;;;;;5023969;28;20028;-68
2023/04/01 06:49:43;;;;;;;1.35;0.43;;;8.80;99.90;;;;;;5017997;28;20187;-68
2023/04/01 06:52:19;;;;;;;1.45;0.38;;;8.80;99.90;;;;;;5018186;28;20034;-67
2023/04/01 06:54:49;;;;;;;0.30;0.30;;;8.80;99.90;;;;;;5022461;28;20071;-67
2023/04/01 06:57:35;;;;;;;0.85;0.45;;;8.90;99.90;;;;;;5017807;28;20543;-67
2023/04/01 07:00:03;;;;;;;0.30;0.30;;;9.00;99.90;;;;;;5015901;28;20033;-68
2023/04/01 07:02:43;;;;;;;0.65;0.30;;;9.00;99.90;;;;;;5019158;28;20445;-65
2023/04/01 07:05:11;;;;;;;0.40;0.40;;;9.10;99.90;;;;;;5011045;28;20113;-67
2023/04/01 07:07:41;;;;;;;1.67;1.10;;;9.20;99.90;;;;;;5022522;28;20029;-65
2023/04/01 07:10:17;;;;;;;6.65;3.13;;;9.20;99.90;;;;;;5026970;28;20047;-67
2023/04/01 07:12:51;;;;;;;1.77;0.90;;;9.20;99.90;;;;;;5024537;28;20021;-68
2023/04/01 07:15:22;;;;;;;1.77;0.75;;;9.30;99.90;;;;;;5018269;28;20429;-66
2023/04/01 07:17:55;;;;;;;4.13;1.20;;;9.30;99.90;;;;;;5015255;28;20026;-67
2023/04/01 07:20:29;;;;;;;0.80;0.50;;;9.40;99.90;;;;;;5027356;28;20152;-67
2023/04/01 07:23:03;;;;;;;0.43;0.43;;;9.30;99.90;;;;;;5023282;28;20072;-67
2023/04/01 07:25:38;;;;;;;1.40;0.85;;;9.30;99.90;;;;;;5029495;28;20037;-67
2023/04/01 07:28:13;;;;;;;2.50;1.23;;;9.40;99.90;;;;;;5019916;28;20557;-67
2023/04/01 07:31:05;;;;;;;7.22;3.38;;;9.40;99.90;;;;;;5015169;28;20025;-68
2023/04/01 07:33:44;;;;;;;7.03;3.45;;;9.40;99.90;;;;;;5018716;28;20018;-67
2023/04/01 07:36:35;;;;;;;4.72;2.80;;;9.50;99.90;;;;;;5020339;28;20021;-67
2023/04/01 07:39:15;;;;;;;14.70;6.55;;;9.50;99.90;;;;;;5025748;28;20030;-67
2023/04/01 07:41:46;;;;;;;20.38;7.95;;;9.40;99.90;;;;;;5020492;28;20117;-67
2023/04/01 07:44:54;;;;;;;22.90;10.50;;;9.50;99.90;;;;;;4993126;28;20704;-67
2023/04/01 07:47:39;;;;;;;5.32;2.78;;;9.50;99.90;;;;;;5015952;28;20045;-67
2023/04/01 07:50:04;;;;;;;;;;;9.40;99.90;;;;;;5016522;28;20559;-66
2023/04/01 07:52:39;;;;;;;4.45;2.30;;;9.40;99.90;;;;;;5022965;28;20028;-66
2023/04/01 07:55:23;;;;;;;4.63;1.95;;;9.30;99.90;;;;;;5021389;28;20387;-67
2023/04/01 07:57:57;;;;;;;;;;;9.40;99.90;;;;;;5018880;28;20026;-67
2023/04/01 08:00:29;;;;;;;5.55;2.30;;;9.40;99.90;;;;;;5022290;28;19967;-66
2023/04/01 08:03:05;;;;;;;17.35;10.55;;;9.50;99.90;;;;;;5018584;28;20029;-65
2023/04/01 08:05:53;;;;;;;12.43;8.38;;;9.60;99.90;;;;;;5011348;28;20037;-65
2023/04/01 08:08:40;;;;;;;18.42;9.50;;;9.60;99.90;;;;;;5016044;28;22183;-67
2023/04/01 08:11:29;;;;;;;13.88;9.80;;;9.50;99.90;;;;;;5014170;28;20580;-67
2023/04/01 08:14:27;;;;;;;6.70;3.65;;;9.50;99.90;;;;;;5020165;28;20037;-69
2023/04/01 08:17:00;;;;;;;17.38;7.35;;;9.50;99.90;;;;;;5018258;28;20501;-67
2023/04/01 08:20:07;;;;;;;7.30;2.70;;;9.60;99.90;;;;;;5021912;28;20421;-67
2023/04/01 08:22:41;;;;;;;14.70;7.03;;;9.50;99.90;;;;;;5025035;28;20060;-64
2023/04/01 08:25:15;;;;;;;3.67;2.33;;;9.50;99.90;;;;;;5023808;28;20045;-67
2023/04/01 08:27:55;;;;;;;9.25;5.60;;;9.50;99.90;;;;;;5022348;28;20030;-67
2023/04/01 08:30:20;;;;;;;4.45;2.33;;;9.50;99.90;;;;;;5018345;28;20029;-64
2023/04/01 08:33:01;;;;;;;3.83;1.40;;;9.50;99.90;;;;;;5019654;28;20037;-67
2023/04/01 08:35:32;;;;;;;5.88;3.05;;;9.50;99.90;;;;;;5018621;28;20124;-67
2023/04/01 08:38:05;;;;;;;8.43;3.67;;;9.50;99.90;;;;;;5025276;28;20014;-66
2023/04/01 08:40:51;;;;;;;14.90;5.43;;;9.60;99.90;;;;;;5022791;28;20068;-64
2023/04/01 08:43:48;;;;;;;9.50;4.97;;;9.60;99.90;;;;;;5019777;28;20280;-66
2023/04/01 08:46:28;;;;;;;19.88;9.40;;;9.60;99.90;;;;;;4994380;28;20041;-67
2023/04/01 08:49:10;;;;;;;17.42;8.20;;;9.60;99.90;;;;;;5014016;28;20037;-67
2023/04/01 08:51:55;;;;;;;49.28;21.55;;;9.60;99.90;;;;;;5026478;28;20018;-67
2023/04/01 08:54:36;;;;;;;13.15;7.10;;;9.60;99.90;;;;;;5017111;28;20021;-67
2023/04/01 08:57:26;;;;;;;4.70;3.35;;;9.60;99.90;;;;;;5017423;28;20091;-67
2023/04/01 09:00:15;;;;;;;7.53;4.72;;;9.60;99.90;;;;;;5015605;28;20511;-67
2023/04/01 09:02:50;;;;;;;7.85;4.53;;;9.50;99.90;;;;;;5017830;28;20033;-67
2023/04/01 09:05:36;;;;;;;6.13;2.65;;;9.50;99.90;;;;;;5025029;28;20029;-66
2023/04/01 09:08:17;;;;;;;8.32;1.88;;;9.60;99.90;;;;;;5019284;28;20632;-67
2023/04/01 09:11:20;;;;;;;3.95;2.00;;;9.70;99.90;;;;;;5029727;28;20049;-66
2023/04/01 09:14:00;;;;;;;2.72;1.30;;;9.90;99.90;;;;;;5031168;28;20428;-67
2023/04/01 09:17:03;;;;;;;4.10;1.60;;;9.80;99.90;;;;;;5028040;28;20052;-66
2023/04/01 09:19:43;;;;;;;6.63;2.38;;;9.80;99.90;;;;;;5016411;28;20538;-66
2023/04/01 09:22:11;;;;;;;6.15;2.83;;;9.90;99.90;;;;;;5015596;28;20026;-67
2023/04/01 09:24:40;;;;;;;2.58;1.25;;;9.80;99.90;;;;;;5021014;28;20033;-67
2023/04/01 09:27:27;;;;;;;4.13;1.60;;;9.90;99.90;;;;;;5024776;28;20494;-67
2023/04/01 09:30:30;;;;;;;5.72;1.58;;;9.90;99.90;;;;;;4994776;28;20124;-66
2023/04/01 09:32:56;;;;;;;7.15;2.00;;;10.00;99.90;;;;;;5021231;28;20033;-67
2023/04/01 09:35:42;;;;;;;5.82;2.45;;;9.90;99.90;;;;;;5021153;28;20040;-66
2023/04/01 09:38:35;;;;;;;5.43;1.52;;;9.90;99.90;;;;;;5025140;28;20121;-66
2023/04/01 09:41:25;;;;;;;3.73;1.43;;;9.90;99.90;;;;;;5021221;28;20028;-67
2023/04/01 09:44:08;;;;;;;6.93;2.30;;;10.10;99.90;;;;;;5018910;28;20277;-67
2023/04/01 09:46:49;;;;;;;3.38;1.48;;;10.00;99.90;;;;;;5001329;28;20046;-67
2023/04/01 09:49:24;;;;;;;3.95;1.55;;;9.90;99.90;;;;;;5017316;28;20029;-66
2023/04/01 09:52:10;;;;;;;2.55;1.38;;;10.00;99.90;;;;;;5019246;28;20396;-67
2023/04/01 09:54:57;;;;;;;12.10;2.47;;;10.00;99.90;;;;;;5020008;28;20506;-67
2023/04/01 09:57:40;;;;;;;8.65;3.88;;;10.10;99.90;;;;;;5014464;28;20389;-67
2023/04/01 10:00:15;;;;;;;9.35;4.13;;;10.00;99.90;;;;;;5024275;28;20498;-67
2023/04/01 10:03:07;;;;;;;6.20;2.92;;;9.80;99.90;;;;;;5016979;28;20033;-67
2023/04/01 10:05:54;;;;;;;4.10;1.42;;;9.80;99.90;;;;;;5023350;28;20032;-66
2023/04/01 10:08:26;;;;;;;1.20;1.10;;;9.70;99.90;;;;;;5015233;28;20128;-66
2023/04/01 10:11:03;;;;;;;1.17;1.08;;;9.70;99.90;;;;;;5023586;28;20147;-66
2023/04/01 10:13:47;;;;;;;1.35;1.15;;;9.60;99.90;;;;;;5012234;28;20109;-67
2023/04/01 10:16:19;;;;;;;1.33;1.23;;;9.60;99.90;;;;;;5019048;28;20021;-67
2023/04/01 10:19:24;;;;;;;8.57;1.85;;;9.70;99.90;;;;;;5014403;28;20009;-67
2023/04/01 10:22:14;;;;;;;2.35;1.80;;;9.80;99.90;;;;;;5016121;28;20022;-67
2023/04/01 10:25:04;;;;;;;5.25;2.65;;;9.90;99.90;;;;;;5018992;28;20021;-67
2023/04/01 10:27:30;;;;;;;4.82;1.55;;;9.90;99.90;;;;;;5024363;28;20025;-67
2023/04/01 10:30:18;;;;;;;2.40;1.60;;;9.90;99.90;;;;;;5018539;28;20538;-66
2023/04/01 10:33:22;;;;;;;2.75;1.50;;;9.90;99.90;;;;;;5015948;28;20025;-67
2023/04/01 10:36:20;;;;;;;2.97;1.90;;;9.90;99.90;;;;;;5011990;28;20034;-67
2023/04/01 10:38:48;;;;;;;2.17;1.55;;;9.90;99.90;;;;;;5012277;28;20028;-68
2023/04/01 10:41:48;;;;;;;3.15;2.17;;;9.90;99.90;;;;;;5018987;28;20099;-67
2023/04/01 10:44:48;;;;;;;2.20;1.75;;;9.90;99.90;;;;;;5024425;28;20034;-67
2023/04/01 10:47:35;;;;;;;6.03;2.35;;;10.00;99.90;;;;;;5015644;28;20105;-66
2023/04/01 10:50:22;;;;;;;5.07;3.53;;;10.10;99.90;;;;;;5014123;28;20037;-67
2023/04/01 10:53:00;;;;;;;2.30;1.65;;;10.30;99.90;;;;;;5019250;28;20020;-67
2023/04/01 10:55:53;;;;;;;1.98;1.23;;;10.20;99.90;;;;;;5018273;28;20029;-66
2023/04/01 10:58:44;;;;;;;2.13;0.90;;;10.10;99.90;;;;;;5011357;28;20022;-67
2023/04/01 11:01:22;;;;;;;1.27;1.17;;;10.20;99.90;;;;;;5017504;28;20025;-67
2023/04/01 11:04:35;;;;;;;1.83;1.30;;;10.30;99.90;;;;;;5019519;28;20040;-67
2023/04/01 11:07:34;;;;;;;3.05;2.15;;;10.30;99.90;;;;;;5014574;28;20117;-66
2023/04/01 11:10:08;;;;;;;1.35;1.10;;;10.40;99.90;;;;;;5014464;28;20029;-67
2023/04/01 11:13:02;;;;;;;2.75;1.60;;;10.50;99.90;;;;;;5013242;28;20434;-67
2023/04/01 11:16:05;;;;;;;2.10;1.52;;;10.40;99.90;;;;;;5017119;28;20030;-67
2023/04/01 11:18:37;;;;;;;1.42;1.00;;;10.50;99.90;;;;;;5019215;28;20058;-67
2023/04/01 11:21:17;;;;;;;2.38;1.45;;;10.50;99.90;;;;;;5015825;28;20022;-67
2023/04/01 11:24:21;;;;;;;4.45;1.20;;;10.50;99.90;;;;;;5023608;28;20052;-67
2023/04/01 11:27:04;;;;;;;2.60;1.25;;;10.40;99.90;;;;;;5020504;28;20113;-67
2023/04/01 11:30:02;;;;;;;1.85;1.05;;;10.60;99.90;;;;;;5019648;28;20395;-67
2023/04/01 11:33:02;;;;;;;1.95;1.42;;;10.50;99.90;;;;;;5019549;28;20026;-67
2023/04/01 11:36:01;;;;;;;1.40;0.95;;;10.60;99.90;;;;;;5018389;28;20022;-66
2023/04/01 11:38:55;;;;;;;1.20;0.80;;;10.60;99.90;;;;;;5023972;28;20084;-67
2023/04/01 11:41:45;;;;;;;1.90;1.15;;;10.50;99.90;;;;;;5018318;28;20565;-66
2023/04/01 11:44:27;;;;;;;1.20;1.10;;;10.70;99.90;;;;;;5019939;28;20030;-67
2023/04/01 11:47:15;;;;;;;1.73;1.00;;;10.90;99.90;;;;;;4989450;28;20038;-66
2023/04/01 11:50:10;;;;;;;4.00;1.05;;;11.20;99.90;;;;;;5015271;28;20398;-67
2023/04/01 11:53:07;;;;;;;1.63;0.98;;;11.40;99.90;;;;;;5021970;28;20117;-67
2023/04/01 11:55:40;;;;;;;1.27;1.00;;;11.60;99.90;;;;;;5028015;28;20025;-67
2023/04/01 11:58:33;;;;;;;3.55;1.77;;;11.60;99.90;;;;;;5027171;28;20024;-67
2023/04/01 12:01:49;;;;;;;0.80;0.80;;;11.60;99.90;;;;;;5028845;28;20037;-67
2023/04/01 12:04:59;;;;;;;3.00;1.70;;;11.60;99.90;;;;;;5037443;28;20037;-67
2023/04/01 12:07:52;;;;;;;4.75;1.70;;;11.60;99.90;;;;;;4994710;28;20084;-66
2023/04/01 12:10:46;;;;;;;1.17;0.90;;;11.50;99.90;;;;;;5023360;28;20072;-66
2023/04/01 12:13:45;;;;;;;2.38;1.60;;;11.30;99.90;;;;;;5016007;28;20037;-66
2023/04/01 12:16:39;;;;;;;1.00;0.90;;;11.20;99.90;;;;;;5021084;28;20029;-67
2023/04/01 12:19:17;;;;;;;1.42;1.33;;;11.30;99.90;;;;;;5024120;28;20061;-67
2023/04/01 12:21:49;;;;;;;1.33;1.20;;;11.30;99.90;;;;;;5022851;28;20026;-65
2023/04/01 12:24:47;;;;;;;1.33;1.15;;;11.30;99.90;;;;;;5018568;28;20026;-65
2023/04/01 12:27:42;;;;;;;1.73;1.50;;;11.20;99.90;;;;;;5024643;28;20067;-65
2023/04/01 12:30:26;;;;;;;;;;;11.20;99.90;;;;;;5024543;28;20025;-65
2023/04/01 12:33:25;;;;;;;3.50;1.33;;;11.20;99.90;;;;;;5024027;28;19917;-65
2023/04/01 12:36:27;;;;;;;1.17;0.90;;;11.30;99.90;;;;;;5026699;28;20307;-65
2023/04/01 12:39:27;;;;;;;1.58;0.85;;;11.40;99.90;;;;;;5023413;28;20164;-65
2023/04/01 12:42:11;;;;;;;1.45;1.20;;;11.60;99.90;;;;;;5025051;28;20052;-65
2023/04/01 12:44:39;;;;;;;;;;;11.80;99.90;;;;;;5027409;28;20549;-66
2023/04/01 12:47:49;;;;;;;1.58;1.35;;;12.10;99.90;;;;;;5005606;28;19917;-65
2023/04/01 12:50:45;;;;;;;1.10;1.00;;;12.20;99.90;;;;;;5022720;28;20034;-66
2023/04/01 12:53:21;;;;;;;4.15;1.90;;;12.00;99.90;;;;;;5021422;28;20022;-66
2023/04/01 12:55:52;;;;;;;3.17;1.45;;;11.80;99.90;;;;;;5020042;28;20083;-66
2023/04/01 12:58:48;;;;;;;2.00;1.40;;;11.60;99.90;;;;;;5026836;28;20033;-65
2023/04/01 13:01:17;;;;;;;3.92;2.30;;;11.40;99.90;;;;;;5024306;28;20487;-65
2023/04/01 13:04:17;;;;;;;3.75;1.85;;;11.10;99.90;;;;;;5015069;28;20079;-66
2023/04/01 13:07:06;;;;;;;4.40;2.10;;;10.90;99.90;;;;;;5015270;28;20036;-66
2023/04/01 13:10:08;;;;;;;6.10;2.90;;;11.00;99.90;;;;;;5022128;28;20399;-66
2023/04/01 13:12:40;;;;;;;2.03;1.40;;;10.90;99.90;;;;;;5023835;28;20487;-66
2023/04/01 13:15:17;;;;;;;3.40;1.70;;;10.90;99.90;;;;;;5023254;28;20071;-66
2023/04/01 13:18:16;;;;;;;8.60;2.92;;;10.90;99.90;;;;;;5028973;28;20033;-65
2023/04/01 13:20:57;;;;;;;6.15;2.65;;;10.90;99.90;;;;;;5017381;28;20029;-66
2023/04/01 13:23:47;;;;;;;3.25;2.03;;;10.90;99.90;;;;;;5021561;28;20040;-66
2023/04/01 13:26:38;;;;;;;19.67;10.15;;;11.00;99.90;;;;;;5028108;28;20033;-66
2023/04/01 13:29:15;;;;;;;13.27;5.20;;;11.00;99.90;;;;;;5027205;28;20037;-65
2023/04/01 13:32:13;;;;;;;5.75;3.13;;;11.10;99.90;;;;;;5020900;28;20032;-65
2023/04/01 13:34:52;;;;;;;6.03;3.00;;;11.00;99.90;;;;;;5022516;28;20026;-66
2023/04/01 13:37:36;;;;;;;5.13;2.20;;;10.90;99.90;;;;;;5022238;28;20014;-66
2023/04/01 13:40:39;;;;;;;3.78;2.05;;;11.00;99.90;;;;;;5028472;28;20379;-66
2023/04/01 13:43:19;;;;;;;6.45;2.63;;;11.20;99.90;;;;;;5026491;28;20517;-66
2023/04/01 13:46:10;;;;;;;2.17;1.40;;;11.10;99.90;;;;;;4998752;28;20069;-66
2023/04/01 13:49:00;;;;;;;2.08;1.75;;;11.20;99.90;;;;;;5025741;28;20037;-67
2023/04/01 13:52:06;;;;;;;3.55;1.63;;;11.40;99.90;;;;;;5014376;28;20085;-66